sensor_id;sensor_type;location;lat;lon;timestamp;temperature;humidity
9790;DHT22;4934;50.852;8.098;2024-01-15T00:02:20;-0.70;99.90
9790;DHT22;4934;50.852;8.098;2024-01-15T00:04:46;-0.60;99.90
9790;DHT22;4934;50.852;8.098;2024-01-15T00:07:11;-0.60;99.90
9790;DHT22;4934;50.852;8.098;2024-01-15T00:09:37;-0.60;99.90
9790;DHT22;4934;50.852;8.098;2024-01-15T00:12:03;-0.60;99.90
9790;DHT22;4934;50.852;8.098;2024-01-15T00:14:28;-0.50;99.90
9790;DHT22;4934;50.852;8.098;2024-01-15T00:16:54;-0.50;99.90
9790;DHT22;4934;50.852;8.098;2024-01-15T00:19:23;-0.50;99.90
9790;DHT22;4934;50.852;8.098;2024-01-15T00:21:49;-0.50;99.90
9790;DHT22;4934;50.852;8.098;2024-01-15T00:24:15;-0.50;99.90
9790;DHT22;4934;50.852;8.098;2024-01-15T00:26:41;-0.40;99.90
9790;DHT22;4934;50.852;8.098;2024-01-15T00:29:07;-0.40;99.90
9790;DHT22;4934;50.852;8.098;2024-01-15T00:31:33;-0.40;99.90
9790;DHT22;4934;50.852;8.098;2024-01-15T00:33:59;-0.40;99.90
9790;DHT22;4934;50.852;8.098;2024-01-15T00:36:25;-0.50;99.90
9790;DHT22;4934;50.852;8.098;2024-01-15T00:38:50;-0.40;99.90
9790;DHT22;4934;50.852;8.098;2024-01-15T00:41:16;-0.40;99.90
9790;DHT22;4934;50.852;8.098;2024-01-15T00:43:42;-0.40;99.90
9790;DHT22;4934;50.852;8.098;2024-01-15T00:46:08;-0.40;99.90
9790;DHT22;4934;50.852;8.098;2024-01-15T00:48:34;-0.30;99.90
9790;DHT22;4934;50.852;8.098;2024-01-15T00:50:59;-0.40;99.90
9790;DHT22;4934;50.852;8.098;2024-01-15T00:53:25;-0.30;99.90
9790;DHT22;4934;50.852;8.098;2024-01-15T00:55:51;-0.30;99.90
9790;DHT22;4934;50.852;8.098;2024-01-15T00:58:16;-0.30;99.90
9790;DHT22;4934;50.852;8.098;2024-01-15T01:00:42;-0.30;99.90
9790;DHT22;4934;50.852;8.098;2024-01-15T01:03:08;-0.30;99.90
9790;DHT22;4934;50.852;8.098;2024-01-15T01:05:34;-0.30;99.90
9790;DHT22;4934;50.852;8.098;2024-01-15T01:08:00;-0.30;99.90
9790;DHT22;4934;50.852;8.098;2024-01-15T01:10:25;-0.20;99.90
9790;DHT22;4934;50.852;8.098;2024-01-15T01:12:52;-0.20;99.90
9790;DHT22;4934;50.852;8.098;2024-01-15T01:15:17;-0.20;99.90
9790;DHT22;4934;50.852;8.098;2024-01-15T01:17:43;-0.20;99.90
9790;DHT22;4934;50.852;8.098;2024-01-15T01:20:09;-0.20;99.90
9790;DHT22;4934;50.852;8.098;2024-01-15T01:22:35;-0.10;99.90
9790;DHT22;4934;50.852;8.098;2024-01-15T01:25:01;-0.10;99.90
9790;DHT22;4934;50.852;8.098;2024-01-15T01:27:27;-0.10;99.90
9790;DHT22;4934;50.852;8.098;2024-01-15T01:29:53;-0.10;99.90
9790;DHT22;4934;50.852;8.098;2024-01-15T01:32:19;-0.10;99.90
9790;DHT22;4934;50.852;8.098;2024-01-15T01:34:44;-0.20;99.90
9790;DHT22;4934;50.852;8.098;2024-01-15T01:37:10;-0.20;99.90
9790;DHT22;4934;50.852;8.098;2024-01-15T01:39:40;-0.20;99.90
9790;DHT22;4934;50.852;8.098;2024-01-15T01:42:05;-0.20;99.90
9790;DHT22;4934;50.852;8.098;2024-01-15T01:44:32;-0.10;99.90
9790;DHT22;4934;50.852;8.098;2024-01-15T01:46:58;-0.10;99.90
9790;DHT22;4934;50.852;8.098;2024-01-15T01:49:25;-0.10;99.90
9790;DHT22;4934;50.852;8.098;2024-01-15T01:51:51;-0.10;99.90
9790;DHT22;4934;50.852;8.098;2024-01-15T01:54:19;-0.20;99.90
9790;DHT22;4934;50.852;8.098;2024-01-15T01:56:47;-0.20;99.90
9790;DHT22;4934;50.852;8.098;2024-01-15T01:59:13;-0.20;99.90
9790;DHT22;4934;50.852;8.098;2024-01-15T02:01:39;-0.10;99.90
9790;DHT22;4934;50.852;8.098;2024-01-15T02:04:06;-0.20;99.90
9790;DHT22;4934;50.852;8.098;2024-01-15T02:06:31;-0.10;99.90
9790;DHT22;4934;50.852;8.098;2024-01-15T02:08:57;-0.10;99.90
9790;DHT22;4934;50.852;8.098;2024-01-15T02:11:23;-0.10;99.90
9790;DHT22;4934;50.852;8.098;2024-01-15T02:13:48;-0.10;99.90
9790;DHT22;4934;50.852;8.098;2024-01-15T02:16:14;-0.10;99.90
9790;DHT22;4934;50.852;8.098;2024-01-15T02:18:44;-0.10;99.90
9790;DHT22;4934;50.852;8.098;2024-01-15T02:21:10;-0.10;99.90
9790;DHT22;4934;50.852;8.098;2024-01-15T02:23:36;-0.10;99.90
9790;DHT22;4934;50.852;8.098;2024-01-15T02:26:03;-0.10;99.90
9790;DHT22;4934;50.852;8.098;2024-01-15T02:28:29;-0.10;99.90
9790;DHT22;4934;50.852;8.098;2024-01-15T02:30:55;-0.10;99.90
9790;DHT22;4934;50.852;8.098;2024-01-15T02:33:21;-0.10;99.90
9790;DHT22;4934;50.852;8.098;2024-01-15T02:35:46;-0.10;99.90
9790;DHT22;4934;50.852;8.098;2024-01-15T02:38:15;-0.10;99.90
9790;DHT22;4934;50.852;8.098;2024-01-15T02:40:42;-0.10;99.90
9790;DHT22;4934;50.852;8.098;2024-01-15T02:43:08;-0.10;99.90
9790;DHT22;4934;50.852;8.098;2024-01-15T02:45:34;-0.10;99.90
9790;DHT22;4934;50.852;8.098;2024-01-15T02:47:59;-0.10;99.90
9790;DHT22;4934;50.852;8.098;2024-01-15T02:50:25;-0.10;99.90
9790;DHT22;4934;50.852;8.098;2024-01-15T02:52:51;-0.10;99.90
9790;DHT22;4934;50.852;8.098;2024-01-15T02:55:16;-0.10;99.90
9790;DHT22;4934;50.852;8.098;2024-01-15T02:57:42;-0.10;99.90
9790;DHT22;4934;50.852;8.098;2024-01-15T03:00:08;-0.10;99.90
9790;DHT22;4934;50.852;8.098;2024-01-15T03:02:37;-0.10;99.90
9790;DHT22;4934;50.852;8.098;2024-01-15T03:05:09;-0.10;99.90
9790;DHT22;4934;50.852;8.098;2024-01-15T03:07:35;-0.10;99.90
9790;DHT22;4934;50.852;8.098;2024-01-15T03:10:01;0.00;99.90
9790;DHT22;4934;50.852;8.098;2024-01-15T03:12:27;-0.10;99.90
9790;DHT22;4934;50.852;8.098;2024-01-15T03:14:52;-0.10;99.90
9790;DHT22;4934;50.852;8.098;2024-01-15T03:17:18;-0.10;99.90
9790;DHT22;4934;50.852;8.098;2024-01-15T03:19:43;-0.10;99.90
9790;DHT22;4934;50.852;8.098;2024-01-15T03:22:09;-0.10;99.90
9790;DHT22;4934;50.852;8.098;2024-01-15T03:24:35;-0.10;99.90
9790;DHT22;4934;50.852;8.098;2024-01-15T03:27:01;-0.10;99.90
9790;DHT22;4934;50.852;8.098;2024-01-15T03:29:27;-0.10;99.90
9790;DHT22;4934;50.852;8.098;2024-01-15T03:31:52;-0.10;99.90
9790;DHT22;4934;50.852;8.098;2024-01-15T03:34:18;0.00;99.90
9790;DHT22;4934;50.852;8.098;2024-01-15T03:36:44;-0.10;99.90
9790;DHT22;4934;50.852;8.098;2024-01-15T03:39:09;0.00;99.90
9790;DHT22;4934;50.852;8.098;2024-01-15T03:41:35;0.00;99.90
9790;DHT22;4934;50.852;8.098;2024-01-15T03:44:00;0.10;99.90
9790;DHT22;4934;50.852;8.098;2024-01-15T03:46:26;0.00;99.90
9790;DHT22;4934;50.852;8.098;2024-01-15T03:48:52;0.00;99.90
9790;DHT22;4934;50.852;8.098;2024-01-15T03:51:18;-0.10;99.90
9790;DHT22;4934;50.852;8.098;2024-01-15T03:53:43;0.00;99.90
9790;DHT22;4934;50.852;8.098;2024-01-15T03:56:09;-0.10;99.90
9790;DHT22;4934;50.852;8.098;2024-01-15T03:58:35;-0.10;99.90
9790;DHT22;4934;50.852;8.098;2024-01-15T04:01:00;-0.10;99.90
9790;DHT22;4934;50.852;8.098;2024-01-15T04:03:36;-0.10;99.90
9790;DHT22;4934;50.852;8.098;2024-01-15T04:06:03;-0.20;99.90
9790;DHT22;4934;50.852;8.098;2024-01-15T04:08:28;-0.10;99.90
9790;DHT22;4934;50.852;8.098;2024-01-15T04:10:54;-0.10;99.90
9790;DHT22;4934;50.852;8.098;2024-01-15T04:13:20;-0.10;99.90
9790;DHT22;4934;50.852;8.098;2024-01-15T04:15:46;0.00;99.90
9790;DHT22;4934;50.852;8.098;2024-01-15T04:18:11;0.00;99.90
9790;DHT22;4934;50.852;8.098;2024-01-15T04:20:37;-0.10;99.90
9790;DHT22;4934;50.852;8.098;2024-01-15T04:23:04;-0.10;99.90
9790;DHT22;4934;50.852;8.098;2024-01-15T04:25:29;0.00;99.90
9790;DHT22;4934;50.852;8.098;2024-01-15T04:27:55;0.00;99.90
9790;DHT22;4934;50.852;8.098;2024-01-15T04:30:21;0.00;99.90
9790;DHT22;4934;50.852;8.098;2024-01-15T04:32:46;-0.20;99.90
9790;DHT22;4934;50.852;8.098;2024-01-15T04:35:12;-0.10;99.90
9790;DHT22;4934;50.852;8.098;2024-01-15T04:37:39;-0.10;99.90
9790;DHT22;4934;50.852;8.098;2024-01-15T04:40:05;-0.10;99.90
9790;DHT22;4934;50.852;8.098;2024-01-15T04:42:30;-0.10;99.90
9790;DHT22;4934;50.852;8.098;2024-01-15T04:44:56;-0.10;99.90
9790;DHT22;4934;50.852;8.098;2024-01-15T04:47:22;-0.10;99.90
9790;DHT22;4934;50.852;8.098;2024-01-15T04:49:47;-0.10;99.90
9790;DHT22;4934;50.852;8.098;2024-01-15T04:52:21;-0.10;99.90
9790;DHT22;4934;50.852;8.098;2024-01-15T04:54:46;-0.10;99.90
9790;DHT22;4934;50.852;8.098;2024-01-15T04:57:12;-0.10;99.90
9790;DHT22;4934;50.852;8.098;2024-01-15T04:59:38;-0.10;99.90
9790;DHT22;4934;50.852;8.098;2024-01-15T05:02:03;-0.10;99.90
9790;DHT22;4934;50.852;8.098;2024-01-15T05:04:29;0.00;99.90
9790;DHT22;4934;50.852;8.098;2024-01-15T05:06:55;0.00;99.90
9790;DHT22;4934;50.852;8.098;2024-01-15T05:09:20;0.10;99.90
9790;DHT22;4934;50.852;8.098;2024-01-15T05:11:46;0.00;99.90
9790;DHT22;4934;50.852;8.098;2024-01-15T05:14:11;0.00;99.90
9790;DHT22;4934;50.852;8.098;2024-01-15T05:16:46;0.10;99.90
9790;DHT22;4934;50.852;8.098;2024-01-15T05:19:13;0.10;99.90
9790;DHT22;4934;50.852;8.098;2024-01-15T05:21:39;0.00;99.90
9790;DHT22;4934;50.852;8.098;2024-01-15T05:24:04;0.00;99.90
9790;DHT22;4934;50.852;8.098;2024-01-15T05:26:30;0.00;99.90
9790;DHT22;4934;50.852;8.098;2024-01-15T05:28:56;0.00;99.90
9790;DHT22;4934;50.852;8.098;2024-01-15T05:31:21;0.00;99.90
9790;DHT22;4934;50.852;8.098;2024-01-15T05:33:47;0.00;99.90
9790;DHT22;4934;50.852;8.098;2024-01-15T05:36:12;0.00;99.90
9790;DHT22;4934;50.852;8.098;2024-01-15T05:38:38;0.00;99.90
9790;DHT22;4934;50.852;8.098;2024-01-15T05:41:05;0.00;99.90
9790;DHT22;4934;50.852;8.098;2024-01-15T05:43:30;0.00;99.90
9790;DHT22;4934;50.852;8.098;2024-01-15T05:45:56;0.00;99.90
9790;DHT22;4934;50.852;8.098;2024-01-15T05:48:22;0.00;99.90
9790;DHT22;4934;50.852;8.098;2024-01-15T05:50:47;0.00;99.90
9790;DHT22;4934;50.852;8.098;2024-01-15T05:53:13;0.10;99.90
9790;DHT22;4934;50.852;8.098;2024-01-15T05:55:38;0.10;99.90
9790;DHT22;4934;50.852;8.098;2024-01-15T05:58:04;0.10;99.90
9790;DHT22;4934;50.852;8.098;2024-01-15T06:00:30;0.10;99.90
9790;DHT22;4934;50.852;8.098;2024-01-15T06:02:58;0.10;99.90
9790;DHT22;4934;50.852;8.098;2024-01-15T06:05:24;0.00;99.90
9790;DHT22;4934;50.852;8.098;2024-01-15T06:07:49;0.10;99.90
9790;DHT22;4934;50.852;8.098;2024-01-15T06:10:15;0.00;99.90
9790;DHT22;4934;50.852;8.098;2024-01-15T06:13:13;0.00;99.90
9790;DHT22;4934;50.852;8.098;2024-01-15T06:15:39;0.00;99.90
9790;DHT22;4934;50.852;8.098;2024-01-15T06:18:05;0.00;99.90
9790;DHT22;4934;50.852;8.098;2024-01-15T06:20:31;0.00;99.90
9790;DHT22;4934;50.852;8.098;2024-01-15T06:22:57;0.10;99.90
9790;DHT22;4934;50.852;8.098;2024-01-15T06:25:22;0.00;99.90
9790;DHT22;4934;50.852;8.098;2024-01-15T06:27:48;0.00;99.90
9790;DHT22;4934;50.852;8.098;2024-01-15T06:30:14;0.10;99.90
9790;DHT22;4934;50.852;8.098;2024-01-15T06:32:39;0.10;99.90
9790;DHT22;4934;50.852;8.098;2024-01-15T06:35:06;0.00;99.90
9790;DHT22;4934;50.852;8.098;2024-01-15T06:37:31;0.10;99.90
9790;DHT22;4934;50.852;8.098;2024-01-15T06:39:58;0.00;99.90
9790;DHT22;4934;50.852;8.098;2024-01-15T06:42:25;0.10;99.90
9790;DHT22;4934;50.852;8.098;2024-01-15T06:44:50;0.10;99.90
9790;DHT22;4934;50.852;8.098;2024-01-15T06:47:16;0.10;99.90
9790;DHT22;4934;50.852;8.098;2024-01-15T06:49:43;0.10;99.90
9790;DHT22;4934;50.852;8.098;2024-01-15T06:52:08;0.10;99.90
9790;DHT22;4934;50.852;8.098;2024-01-15T06:54:34;0.10;99.90
9790;DHT22;4934;50.852;8.098;2024-01-15T06:56:59;0.10;99.90
9790;DHT22;4934;50.852;8.098;2024-01-15T06:59:25;0.10;99.90
9790;DHT22;4934;50.852;8.098;2024-01-15T07:01:51;0.10;99.90
9790;DHT22;4934;50.852;8.098;2024-01-15T07:04:17;0.20;99.90
9790;DHT22;4934;50.852;8.098;2024-01-15T07:06:43;0.10;99.90
9790;DHT22;4934;50.852;8.098;2024-01-15T07:09:08;0.10;99.90
9790;DHT22;4934;50.852;8.098;2024-01-15T07:11:34;0.10;99.90
9790;DHT22;4934;50.852;8.098;2024-01-15T07:14:00;0.10;99.90
9790;DHT22;4934;50.852;8.098;2024-01-15T07:16:25;0.10;99.90
9790;DHT22;4934;50.852;8.098;2024-01-15T07:18:51;0.10;99.90
9790;DHT22;4934;50.852;8.098;2024-01-15T07:21:16;0.10;99.90
9790;DHT22;4934;50.852;8.098;2024-01-15T07:23:42;0.10;99.90
9790;DHT22;4934;50.852;8.098;2024-01-15T07:26:08;0.20;99.90
9790;DHT22;4934;50.852;8.098;2024-01-15T07:28:33;0.10;99.90
9790;DHT22;4934;50.852;8.098;2024-01-15T07:30:59;0.20;99.90
9790;DHT22;4934;50.852;8.098;2024-01-15T07:33:26;0.20;99.90
9790;DHT22;4934;50.852;8.098;2024-01-15T07:35:52;0.20;99.90
9790;DHT22;4934;50.852;8.098;2024-01-15T07:38:18;0.20;99.90
9790;DHT22;4934;50.852;8.098;2024-01-15T07:40:43;0.20;99.90
9790;DHT22;4934;50.852;8.098;2024-01-15T07:43:09;0.20;99.90
9790;DHT22;4934;50.852;8.098;2024-01-15T07:45:35;0.20;99.90
9790;DHT22;4934;50.852;8.098;2024-01-15T07:48:01;0.10;99.90
9790;DHT22;4934;50.852;8.098;2024-01-15T07:50:26;0.20;99.90
9790;DHT22;4934;50.852;8.098;2024-01-15T07:52:56;0.20;99.90
9790;DHT22;4934;50.852;8.098;2024-01-15T07:55:21;0.20;99.90
9790;DHT22;4934;50.852;8.098;2024-01-15T07:57:48;0.20;99.90
9790;DHT22;4934;50.852;8.098;2024-01-15T08:00:13;0.30;99.90
9790;DHT22;4934;50.852;8.098;2024-01-15T08:02:40;0.20;99.90
9790;DHT22;4934;50.852;8.098;2024-01-15T08:05:06;0.20;99.90
9790;DHT22;4934;50.852;8.098;2024-01-15T08:07:31;0.30;99.90
9790;DHT22;4934;50.852;8.098;2024-01-15T08:09:57;0.30;99.90
9790;DHT22;4934;50.852;8.098;2024-01-15T08:12:23;0.30;99.90
9790;DHT22;4934;50.852;8.098;2024-01-15T08:14:49;0.30;99.90
9790;DHT22;4934;50.852;8.098;2024-01-15T08:17:14;0.30;99.90
9790;DHT22;4934;50.852;8.098;2024-01-15T08:19:42;0.40;99.90
9790;DHT22;4934;50.852;8.098;2024-01-15T08:22:07;0.40;99.90
9790;DHT22;4934;50.852;8.098;2024-01-15T08:24:33;0.50;99.90
9790;DHT22;4934;50.852;8.098;2024-01-15T08:26:58;0.50;99.90
9790;DHT22;4934;50.852;8.098;2024-01-15T08:29:24;0.60;99.90
9790;DHT22;4934;50.852;8.098;2024-01-15T08:31:50;0.60;99.90
9790;DHT22;4934;50.852;8.098;2024-01-15T08:34:16;0.70;99.90
9790;DHT22;4934;50.852;8.098;2024-01-15T08:36:41;0.70;99.90
9790;DHT22;4934;50.852;8.098;2024-01-15T08:39:07;0.70;99.90
9790;DHT22;4934;50.852;8.098;2024-01-15T08:41:34;0.70;99.90
9790;DHT22;4934;50.852;8.098;2024-01-15T08:44:00;0.70;99.90
9790;DHT22;4934;50.852;8.098;2024-01-15T08:46:25;0.60;99.90
9790;DHT22;4934;50.852;8.098;2024-01-15T08:48:51;0.70;99.90
9790;DHT22;4934;50.852;8.098;2024-01-15T08:51:16;0.80;99.90
9790;DHT22;4934;50.852;8.098;2024-01-15T08:53:44;0.70;99.90
9790;DHT22;4934;50.852;8.098;2024-01-15T08:56:09;0.70;99.90
9790;DHT22;4934;50.852;8.098;2024-01-15T08:58:35;0.80;99.90
9790;DHT22;4934;50.852;8.098;2024-01-15T09:01:01;0.80;99.90
9790;DHT22;4934;50.852;8.098;2024-01-15T09:03:26;0.80;99.90
9790;DHT22;4934;50.852;8.098;2024-01-15T09:05:52;0.80;99.90
9790;DHT22;4934;50.852;8.098;2024-01-15T09:08:17;0.90;99.90
9790;DHT22;4934;50.852;8.098;2024-01-15T09:10:43;1.00;99.90
9790;DHT22;4934;50.852;8.098;2024-01-15T09:13:09;1.00;99.90
9790;DHT22;4934;50.852;8.098;2024-01-15T09:15:35;0.90;99.90
9790;DHT22;4934;50.852;8.098;2024-01-15T09:18:00;1.00;99.90
9790;DHT22;4934;50.852;8.098;2024-01-15T09:20:27;1.00;99.90
9790;DHT22;4934;50.852;8.098;2024-01-15T09:22:53;1.00;99.90
9790;DHT22;4934;50.852;8.098;2024-01-15T09:25:37;1.00;99.90
9790;DHT22;4934;50.852;8.098;2024-01-15T09:28:03;1.00;99.90
9790;DHT22;4934;50.852;8.098;2024-01-15T09:30:28;1.10;99.90
9790;DHT22;4934;50.852;8.098;2024-01-15T09:32:54;1.00;99.90
9790;DHT22;4934;50.852;8.098;2024-01-15T09:35:20;1.00;99.90
9790;DHT22;4934;50.852;8.098;2024-01-15T09:37:45;1.10;99.90
9790;DHT22;4934;50.852;8.098;2024-01-15T09:40:15;1.20;99.90
9790;DHT22;4934;50.852;8.098;2024-01-15T09:42:42;1.30;99.90
9790;DHT22;4934;50.852;8.098;2024-01-15T09:45:08;1.20;99.90
9790;DHT22;4934;50.852;8.098;2024-01-15T09:47:36;1.20;99.90
9790;DHT22;4934;50.852;8.098;2024-01-15T09:50:03;1.20;99.90
9790;DHT22;4934;50.852;8.098;2024-01-15T09:52:30;1.30;99.90
9790;DHT22;4934;50.852;8.098;2024-01-15T09:54:57;1.20;99.90
9790;DHT22;4934;50.852;8.098;2024-01-15T09:57:23;1.20;99.90
9790;DHT22;4934;50.852;8.098;2024-01-15T09:59:52;1.10;99.90
9790;DHT22;4934;50.852;8.098;2024-01-15T10:02:18;1.20;99.90
9790;DHT22;4934;50.852;8.098;2024-01-15T10:04:44;1.20;99.90
9790;DHT22;4934;50.852;8.098;2024-01-15T10:07:15;1.10;99.90
9790;DHT22;4934;50.852;8.098;2024-01-15T10:09:41;1.10;99.90
9790;DHT22;4934;50.852;8.098;2024-01-15T10:12:07;1.10;99.90
9790;DHT22;4934;50.852;8.098;2024-01-15T10:14:34;1.20;99.90
9790;DHT22;4934;50.852;8.098;2024-01-15T10:17:00;1.20;99.90
9790;DHT22;4934;50.852;8.098;2024-01-15T10:19:25;1.30;99.90
9790;DHT22;4934;50.852;8.098;2024-01-15T10:21:51;1.30;99.90
9790;DHT22;4934;50.852;8.098;2024-01-15T10:24:17;1.40;99.90
9790;DHT22;4934;50.852;8.098;2024-01-15T10:26:42;1.40;99.90
9790;DHT22;4934;50.852;8.098;2024-01-15T10:29:08;1.40;99.90
9790;DHT22;4934;50.852;8.098;2024-01-15T10:31:33;1.40;99.90
9790;DHT22;4934;50.852;8.098;2024-01-15T10:34:12;1.30;99.90
9790;DHT22;4934;50.852;8.098;2024-01-15T10:36:41;1.30;99.90
9790;DHT22;4934;50.852;8.098;2024-01-15T10:39:07;1.30;99.90
9790;DHT22;4934;50.852;8.098;2024-01-15T10:41:33;1.20;99.90
9790;DHT22;4934;50.852;8.098;2024-01-15T10:43:59;1.30;99.90
9790;DHT22;4934;50.852;8.098;2024-01-15T10:46:25;1.30;99.90
9790;DHT22;4934;50.852;8.098;2024-01-15T10:48:59;1.30;99.90
9790;DHT22;4934;50.852;8.098;2024-01-15T10:51:25;1.30;99.90
9790;DHT22;4934;50.852;8.098;2024-01-15T10:53:52;1.30;99.90
9790;DHT22;4934;50.852;8.098;2024-01-15T10:56:18;1.20;99.90
9790;DHT22;4934;50.852;8.098;2024-01-15T10:58:45;1.20;99.90
9790;DHT22;4934;50.852;8.098;2024-01-15T11:01:12;1.20;99.90
9790;DHT22;4934;50.852;8.098;2024-01-15T11:03:38;1.10;99.90
9790;DHT22;4934;50.852;8.098;2024-01-15T11:06:16;1.10;99.90
9790;DHT22;4934;50.852;8.098;2024-01-15T11:08:43;1.20;99.90
9790;DHT22;4934;50.852;8.098;2024-01-15T11:11:09;1.30;99.90
9790;DHT22;4934;50.852;8.098;2024-01-15T11:16:08;1.30;99.90
9790;DHT22;4934;50.852;8.098;2024-01-15T11:18:41;1.30;99.90
9790;DHT22;4934;50.852;8.098;2024-01-15T11:23:50;1.30;99.90
9790;DHT22;4934;50.852;8.098;2024-01-15T11:26:45;1.60;99.90
9790;DHT22;4934;50.852;8.098;2024-01-15T11:34:50;1.60;99.90
9790;DHT22;4934;50.852;8.098;2024-01-15T11:37:16;1.50;99.90
9790;DHT22;4934;50.852;8.098;2024-01-15T11:39:42;1.60;99.90
9790;DHT22;4934;50.852;8.098;2024-01-15T11:42:10;1.70;99.90
9790;DHT22;4934;50.852;8.098;2024-01-15T11:44:37;1.70;99.90
9790;DHT22;4934;50.852;8.098;2024-01-15T11:47:10;1.60;99.90
9790;DHT22;4934;50.852;8.098;2024-01-15T11:52:25;1.80;99.90
9790;DHT22;4934;50.852;8.098;2024-01-15T11:54:59;2.00;99.90
9790;DHT22;4934;50.852;8.098;2024-01-15T11:57:41;2.00;99.90
9790;DHT22;4934;50.852;8.098;2024-01-15T12:00:09;2.00;99.90
9790;DHT22;4934;50.852;8.098;2024-01-15T12:02:36;2.00;99.90
9790;DHT22;4934;50.852;8.098;2024-01-15T12:05:01;2.00;99.90
9790;DHT22;4934;50.852;8.098;2024-01-15T12:07:27;1.90;99.90
9790;DHT22;4934;50.852;8.098;2024-01-15T12:09:53;1.90;99.90
9790;DHT22;4934;50.852;8.098;2024-01-15T12:12:27;1.80;99.90
9790;DHT22;4934;50.852;8.098;2024-01-15T12:14:54;1.90;99.90
9790;DHT22;4934;50.852;8.098;2024-01-15T12:17:20;1.80;99.90
9790;DHT22;4934;50.852;8.098;2024-01-15T12:19:46;1.90;99.90
9790;DHT22;4934;50.852;8.098;2024-01-15T12:22:12;1.90;99.90
9790;DHT22;4934;50.852;8.098;2024-01-15T12:24:37;1.70;99.90
9790;DHT22;4934;50.852;8.098;2024-01-15T12:27:03;1.80;99.90
9790;DHT22;4934;50.852;8.098;2024-01-15T12:29:28;1.90;99.90
9790;DHT22;4934;50.852;8.098;2024-01-15T12:31:54;2.00;99.90
9790;DHT22;4934;50.852;8.098;2024-01-15T12:34:22;2.10;99.90
9790;DHT22;4934;50.852;8.098;2024-01-15T12:36:47;2.10;99.90
9790;DHT22;4934;50.852;8.098;2024-01-15T12:39:13;2.10;99.90
9790;DHT22;4934;50.852;8.098;2024-01-15T12:41:39;2.10;99.90
9790;DHT22;4934;50.852;8.098;2024-01-15T12:44:04;1.90;99.90
9790;DHT22;4934;50.852;8.098;2024-01-15T12:46:30;1.80;99.90
9790;DHT22;4934;50.852;8.098;2024-01-15T12:48:56;1.70;99.90
9790;DHT22;4934;50.852;8.098;2024-01-15T12:51:25;1.70;99.90
9790;DHT22;4934;50.852;8.098;2024-01-15T12:53:51;1.70;99.90
9790;DHT22;4934;50.852;8.098;2024-01-15T12:56:17;1.60;99.90
9790;DHT22;4934;50.852;8.098;2024-01-15T12:58:43;1.50;99.90
9790;DHT22;4934;50.852;8.098;2024-01-15T13:01:08;1.30;99.90
9790;DHT22;4934;50.852;8.098;2024-01-15T13:03:35;0.90;99.90
9790;DHT22;4934;50.852;8.098;2024-01-15T13:06:01;0.90;99.90
9790;DHT22;4934;50.852;8.098;2024-01-15T13:08:26;1.10;99.90
9790;DHT22;4934;50.852;8.098;2024-01-15T13:10:54;1.10;99.90
9790;DHT22;4934;50.852;8.098;2024-01-15T13:13:23;1.20;99.90
9790;DHT22;4934;50.852;8.098;2024-01-15T13:15:49;1.20;99.90
9790;DHT22;4934;50.852;8.098;2024-01-15T13:18:14;1.30;99.90
9790;DHT22;4934;50.852;8.098;2024-01-15T13:20:40;1.30;99.90
9790;DHT22;4934;50.852;8.098;2024-01-15T13:23:05;1.40;99.90
9790;DHT22;4934;50.852;8.098;2024-01-15T13:25:31;1.40;99.90
9790;DHT22;4934;50.852;8.098;2024-01-15T13:27:59;1.60;99.90
9790;DHT22;4934;50.852;8.098;2024-01-15T13:30:25;1.60;99.90
9790;DHT22;4934;50.852;8.098;2024-01-15T13:32:50;1.70;99.90
9790;DHT22;4934;50.852;8.098;2024-01-15T13:35:16;1.60;99.90
9790;DHT22;4934;50.852;8.098;2024-01-15T13:37:42;1.70;99.90
9790;DHT22;4934;50.852;8.098;2024-01-15T13:40:08;1.80;99.90
9790;DHT22;4934;50.852;8.098;2024-01-15T13:42:35;1.80;99.90
9790;DHT22;4934;50.852;8.098;2024-01-15T13:45:05;1.70;99.90
9790;DHT22;4934;50.852;8.098;2024-01-15T13:47:32;1.60;99.90
9790;DHT22;4934;50.852;8.098;2024-01-15T13:49:58;1.40;99.90
9790;DHT22;4934;50.852;8.098;2024-01-15T13:52:24;1.20;99.90
9790;DHT22;4934;50.852;8.098;2024-01-15T13:54:49;1.20;99.90
9790;DHT22;4934;50.852;8.098;2024-01-15T13:57:17;1.10;99.90
9790;DHT22;4934;50.852;8.098;2024-01-15T13:59:44;1.10;99.90
9790;DHT22;4934;50.852;8.098;2024-01-15T14:02:10;1.10;99.90
9790;DHT22;4934;50.852;8.098;2024-01-15T14:04:35;1.00;99.90
9790;DHT22;4934;50.852;8.098;2024-01-15T14:07:01;1.00;99.90
9790;DHT22;4934;50.852;8.098;2024-01-15T14:09:26;0.90;99.90
9790;DHT22;4934;50.852;8.098;2024-01-15T14:11:52;0.80;99.90
9790;DHT22;4934;50.852;8.098;2024-01-15T14:14:18;0.80;99.90
9790;DHT22;4934;50.852;8.098;2024-01-15T14:16:43;0.80;99.90
9790;DHT22;4934;50.852;8.098;2024-01-15T14:19:09;0.80;99.90
9790;DHT22;4934;50.852;8.098;2024-01-15T14:21:35;0.80;99.90
9790;DHT22;4934;50.852;8.098;2024-01-15T14:24:01;0.80;99.90
9790;DHT22;4934;50.852;8.098;2024-01-15T14:26:26;0.90;99.90
9790;DHT22;4934;50.852;8.098;2024-01-15T14:28:53;0.80;99.90
9790;DHT22;4934;50.852;8.098;2024-01-15T14:31:20;0.90;99.90
9790;DHT22;4934;50.852;8.098;2024-01-15T14:34:22;0.90;99.90
9790;DHT22;4934;50.852;8.098;2024-01-15T14:36:49;1.00;99.90
9790;DHT22;4934;50.852;8.098;2024-01-15T14:39:15;0.70;99.90
9790;DHT22;4934;50.852;8.098;2024-01-15T14:41:40;0.80;99.90
9790;DHT22;4934;50.852;8.098;2024-01-15T14:44:06;0.70;99.90
9790;DHT22;4934;50.852;8.098;2024-01-15T14:46:32;0.60;99.90
9790;DHT22;4934;50.852;8.098;2024-01-15T14:48:57;0.60;99.90
9790;DHT22;4934;50.852;8.098;2024-01-15T14:51:23;0.60;99.90
9790;DHT22;4934;50.852;8.098;2024-01-15T14:53:49;0.50;99.90
9790;DHT22;4934;50.852;8.098;2024-01-15T14:56:15;0.50;99.90
9790;DHT22;4934;50.852;8.098;2024-01-15T14:58:40;0.50;99.90
9790;DHT22;4934;50.852;8.098;2024-01-15T15:01:06;0.50;99.90
9790;DHT22;4934;50.852;8.098;2024-01-15T15:03:45;0.50;99.90
9790;DHT22;4934;50.852;8.098;2024-01-15T15:06:10;0.50;99.90
9790;DHT22;4934;50.852;8.098;2024-01-15T15:08:37;0.60;99.90
9790;DHT22;4934;50.852;8.098;2024-01-15T15:11:04;0.60;99.90
9790;DHT22;4934;50.852;8.098;2024-01-15T15:13:32;0.60;99.90
9790;DHT22;4934;50.852;8.098;2024-01-15T15:15:58;0.60;99.90
9790;DHT22;4934;50.852;8.098;2024-01-15T15:18:23;0.60;99.90
9790;DHT22;4934;50.852;8.098;2024-01-15T15:20:49;0.50;99.90
9790;DHT22;4934;50.852;8.098;2024-01-15T15:23:16;0.50;99.90
9790;DHT22;4934;50.852;8.098;2024-01-15T15:25:43;0.50;99.90
9790;DHT22;4934;50.852;8.098;2024-01-15T15:28:08;0.60;99.90
9790;DHT22;4934;50.852;8.098;2024-01-15T15:30:36;0.40;99.90
9790;DHT22;4934;50.852;8.098;2024-01-15T15:33:02;0.40;99.90
9790;DHT22;4934;50.852;8.098;2024-01-15T15:35:39;0.40;99.90
9790;DHT22;4934;50.852;8.098;2024-01-15T15:38:05;0.40;99.90
9790;DHT22;4934;50.852;8.098;2024-01-15T15:40:30;0.40;99.90
9790;DHT22;4934;50.852;8.098;2024-01-15T15:42:56;0.40;99.90
9790;DHT22;4934;50.852;8.098;2024-01-15T15:45:22;0.40;99.90
9790;DHT22;4934;50.852;8.098;2024-01-15T15:47:49;0.40;99.90
9790;DHT22;4934;50.852;8.098;2024-01-15T15:50:24;0.30;99.90
9790;DHT22;4934;50.852;8.098;2024-01-15T15:52:49;0.20;99.90
9790;DHT22;4934;50.852;8.098;2024-01-15T15:55:15;0.20;99.90
9790;DHT22;4934;50.852;8.098;2024-01-15T15:57:41;0.20;99.90
9790;DHT22;4934;50.852;8.098;2024-01-15T16:00:07;0.20;99.90
9790;DHT22;4934;50.852;8.098;2024-01-15T16:02:32;0.20;99.90
9790;DHT22;4934;50.852;8.098;2024-01-15T16:05:17;0.20;99.90
9790;DHT22;4934;50.852;8.098;2024-01-15T16:07:55;0.20;99.90
9790;DHT22;4934;50.852;8.098;2024-01-15T16:10:33;0.20;99.90
9790;DHT22;4934;50.852;8.098;2024-01-15T16:12:58;0.20;99.90
9790;DHT22;4934;50.852;8.098;2024-01-15T16:15:25;0.20;99.90
9790;DHT22;4934;50.852;8.098;2024-01-15T16:17:51;0.20;99.90
9790;DHT22;4934;50.852;8.098;2024-01-15T16:20:17;0.20;99.90
9790;DHT22;4934;50.852;8.098;2024-01-15T16:22:43;0.20;99.90